Hayward — AEEA — position and weather

sailwx.info

Track history (hours):
 
Tides and Currents Weather Stations Pressure Air Temp Water Temp Dewpoint Dewpoint Depression Visibility Wind Speed Wind Dir Waves Ship Positions

Hayward

Last reported at 2018-Jun-24 18:30 UTC. Time now 2018-Jun-24 18:44 UTC.
Position N 40°41' W 074°04'.

Length 37 m; draft 2.7 m.

Type: Cargo ship. MMSI: 366999412.

Date/timePositionNaut miles runAvg speedWind from/ knotsBaromVisibWave heightAir tempDewpointWater temp
2018-Jun-24 18:30N 40°41' W 074°04'0 0.0
2018-Jun-24 18:01N 40°41' W 074°04'0 0.0
2018-Jun-24 17:30N 40°41' W 074°04'2 3.4
2018-Jun-24 17:00N 40°42' W 074°02'2 4.6
2018-Jun-24 16:29N 40°44' W 074°02'0 0.0
2018-Jun-24 15:58N 40°44' W 074°02'1 2.6
2018-Jun-24 15:31N 40°43' W 074°01'5 9.4
2018-Jun-24 15:00N 40°38' W 074°02'5 8.9
2018-Jun-24 14:29N 40°34' W 074°02'1 1.3
2018-Jun-24 13:55N 40°33' W 074°03'0 0.5
2018-Jun-24 13:27N 40°33' W 074°03'1 2.3
2018-Jun-24 13:00N 40°34' W 074°03'0 0.8
2018-Jun-24 12:31N 40°34' W 074°03'3 6.0
2018-Jun-24 12:00N 40°37' W 074°03'4 7.5
2018-Jun-24 11:31N 40°41' W 074°04'0 0.0
2018-Jun-23 18:54N 40°41' W 074°04'0 0.0
2018-Jun-23 18:30N 40°41' W 074°04'1 1.1
2018-Jun-23 18:00N 40°41' W 074°04'4 8.5
2018-Jun-23 17:30N 40°45' W 074°01'1 1.0
2018-Jun-23 16:57N 40°44' W 074°02'0 0.0
2018-Jun-23 16:11N 40°44' W 074°02'1 3.6
2018-Jun-23 16:00N 40°44' W 074°02'3 5.1
2018-Jun-23 15:30N 40°44' W 073°58'0 0.8
2018-Jun-23 15:00N 40°44' W 073°58'3 6.6
2018-Jun-23 14:31N 40°42' W 074°01'3 6.2
2018-Jun-23 14:01N 40°45' W 074°01'4 7.0
2018-Jun-23 13:30N 40°41' W 074°02'4 8.8
2018-Jun-23 13:00N 40°37' W 074°03'1 1.3
2018-Jun-23 12:30N 40°38' W 074°03'4 7.2
2018-Jun-23 12:00N 40°41' W 074°04'  
2018-Jun-20 17:08N 40°41' W 074°04'0 0.0
2018-Jun-20 16:59N 40°41' W 074°04'0 0.0
2018-Jun-20 16:29N 40°41' W 074°04'0 0.0
2018-Jun-20 15:59N 40°41' W 074°04'0 0.0
2018-Jun-20 15:29N 40°41' W 074°04'0 0.0
2018-Jun-20 14:53N 40°41' W 074°04'0 0.0
2018-Jun-20 14:29N 40°41' W 074°04'0 0.0
2018-Jun-20 13:59N 40°41' W 074°04'0 0.0
2018-Jun-20 13:29N 40°41' W 074°04'0 0.0
2018-Jun-20 12:59N 40°41' W 074°04'0 0.0
2018-Jun-20 12:30N 40°41' W 074°04'  
Track history (hours):
 
Tides and Currents Weather Stations Pressure Air Temp Water Temp Dewpoint Dewpoint Depression Visibility Wind Speed Wind Dir Waves Ship Positions

Hayward

Last reported at 2018-Jun-24 18:30 UTC. Time now 2018-Jun-24 18:44 UTC.
Position N 40°41' W 074°04'.

Length 37 m; draft 2.7 m.

Type: Cargo ship. MMSI: 366999412.

Date/timePositionNaut miles runAvg speedWind from/ knotsBaromVisibWave heightAir tempDewpointWater temp
2018-Jun-24 18:30N 40°41' W 074°04'0 0.0
2018-Jun-24 18:01N 40°41' W 074°04'0 0.0
2018-Jun-24 17:30N 40°41' W 074°04'2 3.4
2018-Jun-24 17:00N 40°42' W 074°02'2 4.6
2018-Jun-24 16:29N 40°44' W 074°02'0 0.0
2018-Jun-24 15:58N 40°44' W 074°02'1 2.6
2018-Jun-24 15:31N 40°43' W 074°01'5 9.4
2018-Jun-24 15:00N 40°38' W 074°02'5 8.9
2018-Jun-24 14:29N 40°34' W 074°02'1 1.3
2018-Jun-24 13:55N 40°33' W 074°03'0 0.5
2018-Jun-24 13:27N 40°33' W 074°03'1 2.3
2018-Jun-24 13:00N 40°34' W 074°03'0 0.8
2018-Jun-24 12:31N 40°34' W 074°03'3 6.0
2018-Jun-24 12:00N 40°37' W 074°03'4 7.5
2018-Jun-24 11:31N 40°41' W 074°04'0 0.0
2018-Jun-23 18:54N 40°41' W 074°04'0 0.0
2018-Jun-23 18:30N 40°41' W 074°04'1 1.1
2018-Jun-23 18:00N 40°41' W 074°04'4 8.5
2018-Jun-23 17:30N 40°45' W 074°01'1 1.0
2018-Jun-23 16:57N 40°44' W 074°02'0 0.0
2018-Jun-23 16:11N 40°44' W 074°02'1 3.6
2018-Jun-23 16:00N 40°44' W 074°02'3 5.1
2018-Jun-23 15:30N 40°44' W 073°58'0 0.8
2018-Jun-23 15:00N 40°44' W 073°58'3 6.6
2018-Jun-23 14:31N 40°42' W 074°01'3 6.2
2018-Jun-23 14:01N 40°45' W 074°01'4 7.0
2018-Jun-23 13:30N 40°41' W 074°02'4 8.8
2018-Jun-23 13:00N 40°37' W 074°03'1 1.3
2018-Jun-23 12:30N 40°38' W 074°03'4 7.2
2018-Jun-23 12:00N 40°41' W 074°04'  
2018-Jun-20 17:08N 40°41' W 074°04'0 0.0
2018-Jun-20 16:59N 40°41' W 074°04'0 0.0
2018-Jun-20 16:29N 40°41' W 074°04'0 0.0
2018-Jun-20 15:59N 40°41' W 074°04'0 0.0
2018-Jun-20 15:29N 40°41' W 074°04'0 0.0
2018-Jun-20 14:53N 40°41' W 074°04'0 0.0
2018-Jun-20 14:29N 40°41' W 074°04'0 0.0
2018-Jun-20 13:59N 40°41' W 074°04'0 0.0
2018-Jun-20 13:29N 40°41' W 074°04'0 0.0
2018-Jun-20 12:59N 40°41' W 074°04'0 0.0
2018-Jun-20 12:30N 40°41' W 074°04'  

Dump ship's entire track history